sensor_id;sensor_type;location;lat;lon;timestamp;P1;durP1;ratioP1;P2;durP2;ratioP2
41921;SDS011;27609;51.002;5.354;2022-12-11T00:02:18;53.15;;;19.05;;
41921;SDS011;27609;51.002;5.354;2022-12-11T00:04:44;46.75;;;16.42;;
41921;SDS011;27609;51.002;5.354;2022-12-11T00:07:10;50.50;;;15.95;;
41921;SDS011;27609;51.002;5.354;2022-12-11T00:09:36;45.70;;;16.13;;
41921;SDS011;27609;51.002;5.354;2022-12-11T00:12:01;48.13;;;16.30;;
41921;SDS011;27609;51.002;5.354;2022-12-11T00:14:29;45.65;;;15.38;;
41921;SDS011;27609;51.002;5.354;2022-12-11T00:16:56;51.67;;;17.67;;
41921;SDS011;27609;51.002;5.354;2022-12-11T00:19:21;48.42;;;16.25;;
41921;SDS011;27609;51.002;5.354;2022-12-11T00:21:47;48.03;;;12.98;;
41921;SDS011;27609;51.002;5.354;2022-12-11T00:24:13;41.83;;;16.13;;
41921;SDS011;27609;51.002;5.354;2022-12-11T00:26:38;49.53;;;17.10;;
41921;SDS011;27609;51.002;5.354;2022-12-11T00:29:04;35.72;;;14.15;;
41921;SDS011;27609;51.002;5.354;2022-12-11T00:31:32;39.72;;;14.80;;
41921;SDS011;27609;51.002;5.354;2022-12-11T00:33:59;48.20;;;16.52;;
41921;SDS011;27609;51.002;5.354;2022-12-11T00:36:25;47.95;;;14.85;;
41921;SDS011;27609;51.002;5.354;2022-12-11T00:38:51;36.85;;;12.80;;
41921;SDS011;27609;51.002;5.354;2022-12-11T00:41:17;38.47;;;15.27;;
41921;SDS011;27609;51.002;5.354;2022-12-11T00:43:43;40.33;;;14.52;;
41921;SDS011;27609;51.002;5.354;2022-12-11T00:46:10;38.28;;;16.40;;
41921;SDS011;27609;51.002;5.354;2022-12-11T00:48:36;37.63;;;13.48;;
41921;SDS011;27609;51.002;5.354;2022-12-11T00:51:02;58.50;;;16.30;;
41921;SDS011;27609;51.002;5.354;2022-12-11T00:53:28;43.03;;;15.88;;
41921;SDS011;27609;51.002;5.354;2022-12-11T00:55:54;36.65;;;14.38;;
41921;SDS011;27609;51.002;5.354;2022-12-11T00:58:19;30.73;;;12.95;;
41921;SDS011;27609;51.002;5.354;2022-12-11T01:00:46;34.35;;;14.43;;
41921;SDS011;27609;51.002;5.354;2022-12-11T01:03:14;40.10;;;14.07;;
41921;SDS011;27609;51.002;5.354;2022-12-11T01:05:40;34.10;;;13.68;;
41921;SDS011;27609;51.002;5.354;2022-12-11T01:08:06;35.60;;;13.07;;
41921;SDS011;27609;51.002;5.354;2022-12-11T01:10:32;34.95;;;13.27;;
41921;SDS011;27609;51.002;5.354;2022-12-11T01:12:59;31.90;;;13.60;;
41921;SDS011;27609;51.002;5.354;2022-12-11T01:15:32;33.63;;;13.70;;
41921;SDS011;27609;51.002;5.354;2022-12-11T01:18:03;34.10;;;12.27;;
41921;SDS011;27609;51.002;5.354;2022-12-11T01:20:28;31.98;;;13.02;;
41921;SDS011;27609;51.002;5.354;2022-12-11T01:22:55;37.45;;;14.63;;
41921;SDS011;27609;51.002;5.354;2022-12-11T01:25:22;35.15;;;12.48;;
41921;SDS011;27609;51.002;5.354;2022-12-11T01:27:49;41.55;;;13.70;;
41921;SDS011;27609;51.002;5.354;2022-12-11T01:30:16;39.20;;;14.57;;
41921;SDS011;27609;51.002;5.354;2022-12-11T01:32:43;33.80;;;12.68;;
41921;SDS011;27609;51.002;5.354;2022-12-11T01:35:09;35.10;;;13.32;;
41921;SDS011;27609;51.002;5.354;2022-12-11T01:37:35;31.75;;;13.95;;
41921;SDS011;27609;51.002;5.354;2022-12-11T01:40:02;40.92;;;14.18;;
41921;SDS011;27609;51.002;5.354;2022-12-11T01:42:29;34.05;;;13.90;;
41921;SDS011;27609;51.002;5.354;2022-12-11T01:45:29;33.65;;;13.15;;
41921;SDS011;27609;51.002;5.354;2022-12-11T01:48:05;37.10;;;13.60;;
41921;SDS011;27609;51.002;5.354;2022-12-11T01:50:37;31.02;;;13.85;;
41921;SDS011;27609;51.002;5.354;2022-12-11T01:53:14;35.70;;;13.63;;
41921;SDS011;27609;51.002;5.354;2022-12-11T01:55:44;34.38;;;12.93;;
41921;SDS011;27609;51.002;5.354;2022-12-11T01:58:11;29.27;;;13.85;;
41921;SDS011;27609;51.002;5.354;2022-12-11T02:00:37;30.88;;;13.52;;
41921;SDS011;27609;51.002;5.354;2022-12-11T02:03:02;37.55;;;12.63;;
41921;SDS011;27609;51.002;5.354;2022-12-11T02:05:28;35.50;;;12.43;;
41921;SDS011;27609;51.002;5.354;2022-12-11T02:07:55;32.10;;;13.95;;
41921;SDS011;27609;51.002;5.354;2022-12-11T02:10:23;34.63;;;13.55;;
41921;SDS011;27609;51.002;5.354;2022-12-11T02:13:12;28.85;;;12.35;;
41921;SDS011;27609;51.002;5.354;2022-12-11T02:18:38;32.85;;;13.07;;
41921;SDS011;27609;51.002;5.354;2022-12-11T02:24:25;35.05;;;14.23;;
41921;SDS011;27609;51.002;5.354;2022-12-11T02:27:35;31.88;;;12.85;;
41921;SDS011;27609;51.002;5.354;2022-12-11T02:30:11;29.15;;;11.88;;
41921;SDS011;27609;51.002;5.354;2022-12-11T02:35:21;30.52;;;11.98;;
41921;SDS011;27609;51.002;5.354;2022-12-11T02:38:02;28.33;;;11.77;;
41921;SDS011;27609;51.002;5.354;2022-12-11T02:40:38;26.83;;;12.00;;
41921;SDS011;27609;51.002;5.354;2022-12-11T02:43:07;28.15;;;12.57;;
41921;SDS011;27609;51.002;5.354;2022-12-11T02:45:36;25.80;;;12.30;;
41921;SDS011;27609;51.002;5.354;2022-12-11T02:48:04;34.38;;;13.45;;
41921;SDS011;27609;51.002;5.354;2022-12-11T02:50:32;25.42;;;12.02;;
41921;SDS011;27609;51.002;5.354;2022-12-11T02:53:00;36.10;;;12.57;;
41921;SDS011;27609;51.002;5.354;2022-12-11T02:55:28;32.05;;;12.18;;
41921;SDS011;27609;51.002;5.354;2022-12-11T02:58:13;25.20;;;10.77;;
41921;SDS011;27609;51.002;5.354;2022-12-11T03:00:43;26.48;;;12.02;;
41921;SDS011;27609;51.002;5.354;2022-12-11T03:03:09;26.73;;;11.90;;
41921;SDS011;27609;51.002;5.354;2022-12-11T03:05:36;30.95;;;12.18;;
41921;SDS011;27609;51.002;5.354;2022-12-11T03:08:02;30.25;;;11.10;;
41921;SDS011;27609;51.002;5.354;2022-12-11T03:10:28;31.23;;;12.57;;
41921;SDS011;27609;51.002;5.354;2022-12-11T03:12:54;35.00;;;13.70;;
41921;SDS011;27609;51.002;5.354;2022-12-11T03:15:22;27.52;;;11.10;;
41921;SDS011;27609;51.002;5.354;2022-12-11T03:18:19;27.92;;;13.23;;
41921;SDS011;27609;51.002;5.354;2022-12-11T03:21:04;27.90;;;11.48;;
41921;SDS011;27609;51.002;5.354;2022-12-11T03:23:36;29.23;;;12.25;;
41921;SDS011;27609;51.002;5.354;2022-12-11T03:26:04;34.30;;;12.48;;
41921;SDS011;27609;51.002;5.354;2022-12-11T03:28:38;33.13;;;12.30;;
41921;SDS011;27609;51.002;5.354;2022-12-11T03:31:07;30.23;;;11.35;;
41921;SDS011;27609;51.002;5.354;2022-12-11T03:33:42;29.20;;;12.55;;
41921;SDS011;27609;51.002;5.354;2022-12-11T03:36:13;33.85;;;13.88;;
41921;SDS011;27609;51.002;5.354;2022-12-11T03:38:46;27.55;;;11.23;;
41921;SDS011;27609;51.002;5.354;2022-12-11T03:41:17;29.08;;;13.52;;
41921;SDS011;27609;51.002;5.354;2022-12-11T03:43:46;30.13;;;12.77;;
41921;SDS011;27609;51.002;5.354;2022-12-11T03:46:14;31.20;;;12.55;;
41921;SDS011;27609;51.002;5.354;2022-12-11T03:48:41;32.00;;;12.90;;
41921;SDS011;27609;51.002;5.354;2022-12-11T03:51:09;30.00;;;12.50;;
41921;SDS011;27609;51.002;5.354;2022-12-11T03:53:35;38.58;;;19.15;;
41921;SDS011;27609;51.002;5.354;2022-12-11T03:56:03;37.78;;;16.05;;
41921;SDS011;27609;51.002;5.354;2022-12-11T03:58:32;28.92;;;13.70;;
41921;SDS011;27609;51.002;5.354;2022-12-11T04:00:57;31.75;;;12.55;;
41921;SDS011;27609;51.002;5.354;2022-12-11T04:03:23;30.15;;;12.73;;
41921;SDS011;27609;51.002;5.354;2022-12-11T04:05:52;27.40;;;11.15;;
41921;SDS011;27609;51.002;5.354;2022-12-11T04:08:19;26.47;;;11.87;;
41921;SDS011;27609;51.002;5.354;2022-12-11T04:10:45;29.10;;;11.65;;
41921;SDS011;27609;51.002;5.354;2022-12-11T04:13:12;21.73;;;9.10;;
41921;SDS011;27609;51.002;5.354;2022-12-11T04:15:38;23.50;;;9.80;;
41921;SDS011;27609;51.002;5.354;2022-12-11T04:18:04;27.00;;;10.63;;
41921;SDS011;27609;51.002;5.354;2022-12-11T04:20:53;32.58;;;13.68;;
41921;SDS011;27609;51.002;5.354;2022-12-11T04:23:37;29.77;;;12.50;;
41921;SDS011;27609;51.002;5.354;2022-12-11T04:26:21;31.27;;;12.52;;
41921;SDS011;27609;51.002;5.354;2022-12-11T04:28:47;30.00;;;13.27;;
41921;SDS011;27609;51.002;5.354;2022-12-11T04:31:14;25.20;;;11.20;;
41921;SDS011;27609;51.002;5.354;2022-12-11T04:33:44;25.23;;;10.27;;
41921;SDS011;27609;51.002;5.354;2022-12-11T04:36:11;22.33;;;11.82;;
41921;SDS011;27609;51.002;5.354;2022-12-11T04:38:38;23.88;;;10.30;;
41921;SDS011;27609;51.002;5.354;2022-12-11T04:41:05;26.42;;;11.23;;
41921;SDS011;27609;51.002;5.354;2022-12-11T04:43:33;25.25;;;12.82;;
41921;SDS011;27609;51.002;5.354;2022-12-11T04:46:19;25.42;;;12.77;;
41921;SDS011;27609;51.002;5.354;2022-12-11T04:48:46;26.13;;;10.88;;
41921;SDS011;27609;51.002;5.354;2022-12-11T04:51:12;26.77;;;12.45;;
41921;SDS011;27609;51.002;5.354;2022-12-11T04:53:39;36.90;;;11.75;;
41921;SDS011;27609;51.002;5.354;2022-12-11T04:56:06;21.83;;;11.23;;
41921;SDS011;27609;51.002;5.354;2022-12-11T04:58:32;30.13;;;11.90;;
41921;SDS011;27609;51.002;5.354;2022-12-11T05:00:59;22.67;;;11.18;;
41921;SDS011;27609;51.002;5.354;2022-12-11T05:03:30;25.98;;;11.85;;
41921;SDS011;27609;51.002;5.354;2022-12-11T05:05:56;24.15;;;12.20;;
41921;SDS011;27609;51.002;5.354;2022-12-11T05:08:21;25.00;;;11.57;;
41921;SDS011;27609;51.002;5.354;2022-12-11T05:10:54;28.10;;;14.10;;
41921;SDS011;27609;51.002;5.354;2022-12-11T05:13:21;24.83;;;11.05;;
41921;SDS011;27609;51.002;5.354;2022-12-11T05:15:47;25.27;;;11.23;;
41921;SDS011;27609;51.002;5.354;2022-12-11T05:18:12;22.88;;;11.50;;
41921;SDS011;27609;51.002;5.354;2022-12-11T05:20:38;23.95;;;10.15;;
41921;SDS011;27609;51.002;5.354;2022-12-11T05:23:03;22.77;;;10.60;;
41921;SDS011;27609;51.002;5.354;2022-12-11T05:25:29;23.42;;;10.20;;
41921;SDS011;27609;51.002;5.354;2022-12-11T05:27:55;24.58;;;10.98;;
41921;SDS011;27609;51.002;5.354;2022-12-11T05:30:20;25.92;;;10.75;;
41921;SDS011;27609;51.002;5.354;2022-12-11T05:32:46;25.80;;;10.68;;
41921;SDS011;27609;51.002;5.354;2022-12-11T05:35:11;25.52;;;10.68;;
41921;SDS011;27609;51.002;5.354;2022-12-11T05:37:37;28.08;;;11.10;;
41921;SDS011;27609;51.002;5.354;2022-12-11T05:40:03;25.20;;;10.15;;
41921;SDS011;27609;51.002;5.354;2022-12-11T05:42:30;23.17;;;12.00;;
41921;SDS011;27609;51.002;5.354;2022-12-11T05:44:57;23.05;;;10.38;;
41921;SDS011;27609;51.002;5.354;2022-12-11T05:47:22;24.50;;;11.30;;
41921;SDS011;27609;51.002;5.354;2022-12-11T05:49:48;21.45;;;9.25;;
41921;SDS011;27609;51.002;5.354;2022-12-11T05:52:13;25.88;;;11.05;;
41921;SDS011;27609;51.002;5.354;2022-12-11T05:54:40;22.73;;;9.60;;
41921;SDS011;27609;51.002;5.354;2022-12-11T05:57:06;23.60;;;9.98;;
41921;SDS011;27609;51.002;5.354;2022-12-11T05:59:32;23.27;;;9.18;;
41921;SDS011;27609;51.002;5.354;2022-12-11T06:01:57;26.85;;;10.15;;
41921;SDS011;27609;51.002;5.354;2022-12-11T06:04:23;21.30;;;9.60;;
41921;SDS011;27609;51.002;5.354;2022-12-11T06:06:49;20.98;;;9.95;;
41921;SDS011;27609;51.002;5.354;2022-12-11T06:09:15;24.63;;;9.63;;
41921;SDS011;27609;51.002;5.354;2022-12-11T06:11:41;29.67;;;10.18;;
41921;SDS011;27609;51.002;5.354;2022-12-11T06:14:08;22.25;;;10.93;;
41921;SDS011;27609;51.002;5.354;2022-12-11T06:16:34;20.00;;;10.00;;
41921;SDS011;27609;51.002;5.354;2022-12-11T06:19:00;17.90;;;8.05;;
41921;SDS011;27609;51.002;5.354;2022-12-11T06:21:26;25.48;;;10.45;;
41921;SDS011;27609;51.002;5.354;2022-12-11T06:23:54;22.20;;;10.25;;
41921;SDS011;27609;51.002;5.354;2022-12-11T06:26:21;23.70;;;10.38;;
41921;SDS011;27609;51.002;5.354;2022-12-11T06:28:48;22.10;;;9.38;;
41921;SDS011;27609;51.002;5.354;2022-12-11T06:31:14;17.73;;;9.27;;
41921;SDS011;27609;51.002;5.354;2022-12-11T06:33:40;22.27;;;10.43;;
41921;SDS011;27609;51.002;5.354;2022-12-11T06:36:11;19.20;;;9.02;;
41921;SDS011;27609;51.002;5.354;2022-12-11T06:38:39;19.52;;;8.55;;
41921;SDS011;27609;51.002;5.354;2022-12-11T06:41:05;20.13;;;9.07;;
41921;SDS011;27609;51.002;5.354;2022-12-11T06:43:32;27.40;;;8.63;;
41921;SDS011;27609;51.002;5.354;2022-12-11T06:46:10;22.27;;;9.60;;
41921;SDS011;27609;51.002;5.354;2022-12-11T06:48:40;19.77;;;8.43;;
41921;SDS011;27609;51.002;5.354;2022-12-11T06:51:11;18.83;;;9.48;;
41921;SDS011;27609;51.002;5.354;2022-12-11T06:53:38;24.60;;;8.13;;
41921;SDS011;27609;51.002;5.354;2022-12-11T06:56:10;21.08;;;8.93;;
41921;SDS011;27609;51.002;5.354;2022-12-11T06:58:37;20.80;;;9.30;;
41921;SDS011;27609;51.002;5.354;2022-12-11T07:01:03;16.17;;;8.18;;
41921;SDS011;27609;51.002;5.354;2022-12-11T07:03:37;19.27;;;8.75;;
41921;SDS011;27609;51.002;5.354;2022-12-11T07:06:03;24.45;;;9.55;;
41921;SDS011;27609;51.002;5.354;2022-12-11T07:08:29;21.70;;;9.65;;
41921;SDS011;27609;51.002;5.354;2022-12-11T07:11:01;19.40;;;8.55;;
41921;SDS011;27609;51.002;5.354;2022-12-11T07:13:28;24.80;;;9.38;;
41921;SDS011;27609;51.002;5.354;2022-12-11T07:15:53;15.85;;;8.38;;
41921;SDS011;27609;51.002;5.354;2022-12-11T07:18:19;17.13;;;8.65;;
41921;SDS011;27609;51.002;5.354;2022-12-11T07:20:45;22.23;;;8.77;;
41921;SDS011;27609;51.002;5.354;2022-12-11T07:23:10;17.73;;;8.35;;
41921;SDS011;27609;51.002;5.354;2022-12-11T07:25:36;21.17;;;8.38;;
41921;SDS011;27609;51.002;5.354;2022-12-11T07:28:02;30.65;;;8.38;;
41921;SDS011;27609;51.002;5.354;2022-12-11T07:30:28;22.00;;;9.52;;
41921;SDS011;27609;51.002;5.354;2022-12-11T07:32:54;21.38;;;9.18;;
41921;SDS011;27609;51.002;5.354;2022-12-11T07:35:20;14.93;;;6.00;;
41921;SDS011;27609;51.002;5.354;2022-12-11T07:37:45;21.08;;;9.32;;
41921;SDS011;27609;51.002;5.354;2022-12-11T07:40:11;18.42;;;8.32;;
41921;SDS011;27609;51.002;5.354;2022-12-11T07:42:37;25.50;;;10.77;;
41921;SDS011;27609;51.002;5.354;2022-12-11T07:45:03;22.33;;;10.13;;
41921;SDS011;27609;51.002;5.354;2022-12-11T07:47:29;23.33;;;9.27;;
41921;SDS011;27609;51.002;5.354;2022-12-11T07:49:54;20.05;;;9.85;;
41921;SDS011;27609;51.002;5.354;2022-12-11T07:52:20;19.80;;;9.30;;
41921;SDS011;27609;51.002;5.354;2022-12-11T07:54:46;24.40;;;9.00;;
41921;SDS011;27609;51.002;5.354;2022-12-11T07:57:12;21.92;;;9.25;;
41921;SDS011;27609;51.002;5.354;2022-12-11T07:59:37;28.63;;;12.02;;
41921;SDS011;27609;51.002;5.354;2022-12-11T08:02:03;32.45;;;12.05;;
41921;SDS011;27609;51.002;5.354;2022-12-11T08:04:28;22.88;;;11.20;;
41921;SDS011;27609;51.002;5.354;2022-12-11T08:06:54;21.38;;;9.45;;
41921;SDS011;27609;51.002;5.354;2022-12-11T08:09:21;25.15;;;10.65;;
41921;SDS011;27609;51.002;5.354;2022-12-11T08:11:47;30.92;;;11.05;;
41921;SDS011;27609;51.002;5.354;2022-12-11T08:14:14;23.85;;;9.60;;
41921;SDS011;27609;51.002;5.354;2022-12-11T08:16:40;25.75;;;10.68;;
41921;SDS011;27609;51.002;5.354;2022-12-11T08:19:07;23.88;;;11.27;;
41921;SDS011;27609;51.002;5.354;2022-12-11T08:21:35;25.45;;;10.73;;
41921;SDS011;27609;51.002;5.354;2022-12-11T08:24:00;22.65;;;9.15;;
41921;SDS011;27609;51.002;5.354;2022-12-11T08:26:27;27.30;;;9.93;;
41921;SDS011;27609;51.002;5.354;2022-12-11T08:28:54;23.92;;;9.13;;
41921;SDS011;27609;51.002;5.354;2022-12-11T08:31:20;24.30;;;9.82;;
41921;SDS011;27609;51.002;5.354;2022-12-11T08:33:46;17.98;;;9.73;;
41921;SDS011;27609;51.002;5.354;2022-12-11T08:36:13;23.00;;;9.02;;
41921;SDS011;27609;51.002;5.354;2022-12-11T08:38:41;21.30;;;10.52;;
41921;SDS011;27609;51.002;5.354;2022-12-11T08:41:14;25.33;;;11.13;;
41921;SDS011;27609;51.002;5.354;2022-12-11T08:43:41;18.67;;;10.60;;
41921;SDS011;27609;51.002;5.354;2022-12-11T08:46:07;22.95;;;9.57;;
41921;SDS011;27609;51.002;5.354;2022-12-11T08:48:34;23.50;;;11.38;;
41921;SDS011;27609;51.002;5.354;2022-12-11T08:51:01;23.27;;;9.27;;
41921;SDS011;27609;51.002;5.354;2022-12-11T08:53:29;27.38;;;9.52;;
41921;SDS011;27609;51.002;5.354;2022-12-11T08:56:02;28.48;;;11.65;;
41921;SDS011;27609;51.002;5.354;2022-12-11T08:58:28;20.88;;;10.18;;
41921;SDS011;27609;51.002;5.354;2022-12-11T09:00:54;25.77;;;10.98;;
41921;SDS011;27609;51.002;5.354;2022-12-11T09:03:20;21.83;;;9.75;;
41921;SDS011;27609;51.002;5.354;2022-12-11T09:05:46;23.50;;;11.50;;
41921;SDS011;27609;51.002;5.354;2022-12-11T09:08:11;29.58;;;10.55;;
41921;SDS011;27609;51.002;5.354;2022-12-11T09:10:37;23.25;;;10.00;;
41921;SDS011;27609;51.002;5.354;2022-12-11T09:13:03;21.48;;;9.02;;
41921;SDS011;27609;51.002;5.354;2022-12-11T09:15:29;26.08;;;10.90;;
41921;SDS011;27609;51.002;5.354;2022-12-11T09:17:54;22.20;;;10.50;;
41921;SDS011;27609;51.002;5.354;2022-12-11T09:20:20;27.88;;;11.65;;
41921;SDS011;27609;51.002;5.354;2022-12-11T09:22:46;22.42;;;11.38;;
41921;SDS011;27609;51.002;5.354;2022-12-11T09:25:11;23.08;;;10.23;;
41921;SDS011;27609;51.002;5.354;2022-12-11T09:27:37;21.37;;;9.73;;
41921;SDS011;27609;51.002;5.354;2022-12-11T09:30:03;17.75;;;9.10;;
41921;SDS011;27609;51.002;5.354;2022-12-11T09:32:29;22.80;;;9.68;;
41921;SDS011;27609;51.002;5.354;2022-12-11T09:34:54;17.02;;;8.90;;
41921;SDS011;27609;51.002;5.354;2022-12-11T09:37:20;21.95;;;9.85;;
41921;SDS011;27609;51.002;5.354;2022-12-11T09:39:46;21.80;;;9.13;;
41921;SDS011;27609;51.002;5.354;2022-12-11T09:42:13;17.25;;;7.28;;
41921;SDS011;27609;51.002;5.354;2022-12-11T09:44:50;21.25;;;10.02;;
41921;SDS011;27609;51.002;5.354;2022-12-11T09:50:26;19.52;;;10.00;;
41921;SDS011;27609;51.002;5.354;2022-12-11T09:55:55;16.42;;;8.57;;
41921;SDS011;27609;51.002;5.354;2022-12-11T10:01:43;22.27;;;9.70;;
41921;SDS011;27609;51.002;5.354;2022-12-11T10:04:32;16.77;;;8.88;;
41921;SDS011;27609;51.002;5.354;2022-12-11T10:09:42;17.55;;;8.25;;
41921;SDS011;27609;51.002;5.354;2022-12-11T10:12:51;15.20;;;7.50;;
41921;SDS011;27609;51.002;5.354;2022-12-11T10:18:36;19.65;;;9.15;;
41921;SDS011;27609;51.002;5.354;2022-12-11T10:21:02;28.17;;;11.32;;
41921;SDS011;27609;51.002;5.354;2022-12-11T10:23:33;17.90;;;9.02;;
41921;SDS011;27609;51.002;5.354;2022-12-11T10:26:09;23.30;;;9.70;;
41921;SDS011;27609;51.002;5.354;2022-12-11T10:28:40;16.42;;;8.60;;
41921;SDS011;27609;51.002;5.354;2022-12-11T10:31:16;16.95;;;9.13;;
41921;SDS011;27609;51.002;5.354;2022-12-11T10:33:57;20.52;;;9.68;;
41921;SDS011;27609;51.002;5.354;2022-12-11T10:36:47;14.77;;;8.02;;
41921;SDS011;27609;51.002;5.354;2022-12-11T10:39:19;15.43;;;7.97;;
41921;SDS011;27609;51.002;5.354;2022-12-11T10:41:47;18.52;;;8.43;;
41921;SDS011;27609;51.002;5.354;2022-12-11T10:44:22;18.35;;;9.50;;
41921;SDS011;27609;51.002;5.354;2022-12-11T10:49:42;18.05;;;8.57;;
41921;SDS011;27609;51.002;5.354;2022-12-11T10:52:18;20.95;;;9.60;;
41921;SDS011;27609;51.002;5.354;2022-12-11T10:54:52;18.30;;;8.45;;
41921;SDS011;27609;51.002;5.354;2022-12-11T10:57:41;17.17;;;10.13;;
41921;SDS011;27609;51.002;5.354;2022-12-11T11:00:24;16.92;;;7.68;;
41921;SDS011;27609;51.002;5.354;2022-12-11T11:03:01;16.60;;;10.23;;
41921;SDS011;27609;51.002;5.354;2022-12-11T11:05:35;18.92;;;9.18;;
41921;SDS011;27609;51.002;5.354;2022-12-11T11:08:07;15.27;;;8.73;;
41921;SDS011;27609;51.002;5.354;2022-12-11T11:10:53;19.52;;;9.38;;
41921;SDS011;27609;51.002;5.354;2022-12-11T11:13:25;15.85;;;9.18;;
41921;SDS011;27609;51.002;5.354;2022-12-11T11:16:10;18.83;;;8.60;;
41921;SDS011;27609;51.002;5.354;2022-12-11T11:18:39;20.70;;;8.27;;
41921;SDS011;27609;51.002;5.354;2022-12-11T11:21:06;18.92;;;8.50;;
41921;SDS011;27609;51.002;5.354;2022-12-11T11:23:39;19.83;;;10.05;;
41921;SDS011;27609;51.002;5.354;2022-12-11T11:26:06;19.98;;;9.43;;
41921;SDS011;27609;51.002;5.354;2022-12-11T11:28:34;18.40;;;9.23;;
41921;SDS011;27609;51.002;5.354;2022-12-11T11:33:46;23.92;;;9.50;;
41921;SDS011;27609;51.002;5.354;2022-12-11T11:36:27;18.95;;;10.05;;
41921;SDS011;27609;51.002;5.354;2022-12-11T11:41:24;30.75;;;12.85;;
41921;SDS011;27609;51.002;5.354;2022-12-11T11:43:58;20.20;;;9.30;;
41921;SDS011;27609;51.002;5.354;2022-12-11T11:46:29;17.33;;;8.75;;
41921;SDS011;27609;51.002;5.354;2022-12-11T11:54:49;24.60;;;9.48;;
41921;SDS011;27609;51.002;5.354;2022-12-11T11:57:26;17.55;;;9.43;;
41921;SDS011;27609;51.002;5.354;2022-12-11T12:00:04;18.40;;;8.30;;
41921;SDS011;27609;51.002;5.354;2022-12-11T12:02:33;22.10;;;10.40;;
41921;SDS011;27609;51.002;5.354;2022-12-11T12:05:00;18.45;;;9.07;;
41921;SDS011;27609;51.002;5.354;2022-12-11T12:07:38;21.50;;;9.05;;
41921;SDS011;27609;51.002;5.354;2022-12-11T12:10:25;15.57;;;7.07;;
41921;SDS011;27609;51.002;5.354;2022-12-11T12:13:09;21.55;;;10.95;;
41921;SDS011;27609;51.002;5.354;2022-12-11T12:15:53;16.88;;;8.75;;
41921;SDS011;27609;51.002;5.354;2022-12-11T12:21:02;19.85;;;11.05;;
41921;SDS011;27609;51.002;5.354;2022-12-11T12:23:52;24.20;;;11.05;;
41921;SDS011;27609;51.002;5.354;2022-12-11T12:26:41;20.33;;;9.23;;
41921;SDS011;27609;51.002;5.354;2022-12-11T12:32:04;20.08;;;8.43;;
41921;SDS011;27609;51.002;5.354;2022-12-11T12:40:28;19.20;;;9.32;;
41921;SDS011;27609;51.002;5.354;2022-12-11T12:48:50;18.45;;;8.65;;
41921;SDS011;27609;51.002;5.354;2022-12-11T12:51:18;16.27;;;8.00;;
41921;SDS011;27609;51.002;5.354;2022-12-11T12:53:54;20.13;;;9.50;;
41921;SDS011;27609;51.002;5.354;2022-12-11T12:56:23;20.67;;;9.93;;
41921;SDS011;27609;51.002;5.354;2022-12-11T12:58:50;22.20;;;10.60;;
41921;SDS011;27609;51.002;5.354;2022-12-11T13:03:52;17.38;;;8.88;;
41921;SDS011;27609;51.002;5.354;2022-12-11T13:09:17;19.73;;;8.38;;
41921;SDS011;27609;51.002;5.354;2022-12-11T13:11:46;15.93;;;8.68;;
41921;SDS011;27609;51.002;5.354;2022-12-11T13:16:45;25.40;;;10.45;;
41921;SDS011;27609;51.002;5.354;2022-12-11T13:27:50;18.73;;;9.57;;
41921;SDS011;27609;51.002;5.354;2022-12-11T13:33:03;19.92;;;9.68;;
41921;SDS011;27609;51.002;5.354;2022-12-11T13:35:32;18.67;;;8.13;;
41921;SDS011;27609;51.002;5.354;2022-12-11T13:38:20;17.52;;;9.27;;
41921;SDS011;27609;51.002;5.354;2022-12-11T13:40:48;19.92;;;8.85;;
41921;SDS011;27609;51.002;5.354;2022-12-11T13:43:19;12.75;;;8.23;;
41921;SDS011;27609;51.002;5.354;2022-12-11T13:45:49;20.40;;;9.23;;
41921;SDS011;27609;51.002;5.354;2022-12-11T13:48:26;21.85;;;9.82;;
41921;SDS011;27609;51.002;5.354;2022-12-11T13:50:55;19.40;;;7.60;;
41921;SDS011;27609;51.002;5.354;2022-12-11T13:53:21;21.63;;;9.23;;
41921;SDS011;27609;51.002;5.354;2022-12-11T13:55:57;24.27;;;10.02;;
41921;SDS011;27609;51.002;5.354;2022-12-11T13:58:25;19.92;;;10.45;;
41921;SDS011;27609;51.002;5.354;2022-12-11T14:01:08;18.75;;;9.43;;
41921;SDS011;27609;51.002;5.354;2022-12-11T14:03:40;17.17;;;10.35;;
41921;SDS011;27609;51.002;5.354;2022-12-11T14:06:15;22.02;;;9.85;;
41921;SDS011;27609;51.002;5.354;2022-12-11T14:08:43;21.63;;;11.02;;
41921;SDS011;27609;51.002;5.354;2022-12-11T14:11:14;22.50;;;9.82;;
41921;SDS011;27609;51.002;5.354;2022-12-11T14:13:47;22.02;;;10.48;;
41921;SDS011;27609;51.002;5.354;2022-12-11T14:16:18;19.60;;;10.00;;
41921;SDS011;27609;51.002;5.354;2022-12-11T14:18:46;22.13;;;9.98;;
41921;SDS011;27609;51.002;5.354;2022-12-11T14:21:21;23.25;;;11.05;;
41921;SDS011;27609;51.002;5.354;2022-12-11T14:23:53;23.58;;;10.60;;
41921;SDS011;27609;51.002;5.354;2022-12-11T14:26:25;21.88;;;10.60;;
41921;SDS011;27609;51.002;5.354;2022-12-11T14:28:52;26.02;;;10.38;;
41921;SDS011;27609;51.002;5.354;2022-12-11T14:34:03;24.77;;;10.95;;
41921;SDS011;27609;51.002;5.354;2022-12-11T14:36:35;21.00;;;11.55;;
41921;SDS011;27609;51.002;5.354;2022-12-11T14:39:06;23.83;;;12.23;;
41921;SDS011;27609;51.002;5.354;2022-12-11T14:41:41;30.92;;;15.30;;
41921;SDS011;27609;51.002;5.354;2022-12-11T14:44:16;25.73;;;11.65;;
41921;SDS011;27609;51.002;5.354;2022-12-11T14:49:27;21.95;;;12.43;;
41921;SDS011;27609;51.002;5.354;2022-12-11T14:51:56;21.45;;;11.90;;
41921;SDS011;27609;51.002;5.354;2022-12-11T14:56:55;24.17;;;11.25;;
41921;SDS011;27609;51.002;5.354;2022-12-11T14:59:22;19.13;;;10.43;;
41921;SDS011;27609;51.002;5.354;2022-12-11T15:01:57;23.73;;;10.20;;
41921;SDS011;27609;51.002;5.354;2022-12-11T15:04:28;20.73;;;10.32;;
41921;SDS011;27609;51.002;5.354;2022-12-11T15:06:55;24.73;;;10.65;;
41921;SDS011;27609;51.002;5.354;2022-12-11T15:09:33;22.85;;;11.10;;
41921;SDS011;27609;51.002;5.354;2022-12-11T15:12:17;23.40;;;9.25;;
41921;SDS011;27609;51.002;5.354;2022-12-11T15:14:56;19.48;;;10.85;;
41921;SDS011;27609;51.002;5.354;2022-12-11T15:17:27;32.42;;;11.45;;
41921;SDS011;27609;51.002;5.354;2022-12-11T15:19:55;22.30;;;11.50;;
41921;SDS011;27609;51.002;5.354;2022-12-11T15:22:26;21.15;;;10.35;;
41921;SDS011;27609;51.002;5.354;2022-12-11T15:24:56;22.38;;;11.38;;
41921;SDS011;27609;51.002;5.354;2022-12-11T15:27:37;16.25;;;9.38;;
41921;SDS011;27609;51.002;5.354;2022-12-11T15:35:53;26.48;;;13.05;;
41921;SDS011;27609;51.002;5.354;2022-12-11T15:38:24;27.88;;;12.85;;
41921;SDS011;27609;51.002;5.354;2022-12-11T15:40:51;25.17;;;13.30;;
41921;SDS011;27609;51.002;5.354;2022-12-11T15:43:16;21.23;;;11.52;;
41921;SDS011;27609;51.002;5.354;2022-12-11T15:45:42;24.52;;;11.88;;
41921;SDS011;27609;51.002;5.354;2022-12-11T15:48:08;26.45;;;12.70;;
41921;SDS011;27609;51.002;5.354;2022-12-11T15:50:35;30.63;;;14.07;;
41921;SDS011;27609;51.002;5.354;2022-12-11T15:53:01;23.75;;;12.93;;
41921;SDS011;27609;51.002;5.354;2022-12-11T15:55:26;29.30;;;14.02;;
41921;SDS011;27609;51.002;5.354;2022-12-11T15:58:00;30.23;;;15.05;;
41921;SDS011;27609;51.002;5.354;2022-12-11T16:00:29;24.02;;;14.10;;
41921;SDS011;27609;51.002;5.354;2022-12-11T16:02:56;28.55;;;14.73;;
41921;SDS011;27609;51.002;5.354;2022-12-11T16:05:22;27.00;;;15.77;;
41921;SDS011;27609;51.002;5.354;2022-12-11T16:07:48;26.25;;;14.68;;
41921;SDS011;27609;51.002;5.354;2022-12-11T16:10:19;27.13;;;14.30;;